Time;durP1;ratioP1;P1;durP2;ratioP2;P2;SDS_P1;SDS_P2;PMS_P1;PMS_P2;Temp;Humidity;BMP_temperature;BMP_pressure;BME280_temperature;BME280_humidity;BME280_pressure;Samples;Min_cycle;Max_cycle;Signal;HPM_P1;HPM_P2
2021/03/12 00:01:30;;;;;;;17.40;10.98;;;;;;;3.66;73.04;95449.46;1729379;81;21151;-77
2021/03/12 00:03:57;;;;;;;15.30;10.00;;;;;;;3.67;72.73;95441.86;1727362;83;21119;-77
2021/03/12 00:06:24;;;;;;;16.82;10.65;;;;;;;3.67;72.61;95448.94;1728124;83;21115;-78
2021/03/12 00:08:51;;;;;;;14.98;9.73;;;;;;;3.69;72.57;95438.97;1729006;83;21084;-78
2021/03/12 00:11:21;;;;;;;16.48;9.13;;;;;;;3.70;72.45;95467.53;1729095;83;21118;-78
2021/03/12 00:13:48;;;;;;;;;;;;;;;3.76;72.23;95477.48;1732856;81;21099;-78
2021/03/12 00:16:16;;;;;;;13.65;9.15;;;;;;;3.78;71.94;95470.14;1716663;81;20171;-78
2021/03/12 00:18:46;;;;;;;12.53;7.87;;;;;;;3.79;71.57;95430.55;1728237;81;21221;-77
2021/03/12 00:21:15;;;;;;;12.15;7.90;;;;;;;3.86;71.34;95452.59;1709142;82;21134;-77
2021/03/12 00:23:43;;;;;;;15.55;8.90;;;;;;;3.85;71.39;95454.95;1737129;81;21483;-77
2021/03/12 00:26:11;;;;;;;13.72;8.58;;;;;;;3.87;71.23;95447.60;1724893;83;21107;-77
2021/03/12 00:28:38;;;;;;;14.70;10.32;;;;;;;3.93;70.80;95430.80;1725667;82;21119;-78
2021/03/12 00:31:06;;;;;;;13.95;9.20;;;;;;;3.98;70.62;95427.41;1716457;83;21155;-78
2021/03/12 00:33:34;;;;;;;12.58;7.75;;;;;;;3.96;70.57;95434.23;1727801;83;21154;-78
2021/03/12 00:36:02;;;;;;;14.00;8.08;;;;;;;3.95;70.38;95415.62;1727828;81;21107;-78
2021/03/12 00:38:29;;;;;;;12.28;8.18;;;;;;;3.97;70.30;95459.40;1728446;83;21098;-78
2021/03/12 00:41:04;;;;;;;14.40;8.85;;;;;;;4.03;70.08;95427.39;1728471;83;21141;-78
2021/03/12 00:43:31;;;;;;;12.37;7.00;;;;;;;4.02;70.03;95456.77;1720302;83;21133;-78
2021/03/12 00:46:02;;;;;;;16.32;9.73;;;;;;;4.05;70.04;95448.36;1731146;83;21161;-78
2021/03/12 00:48:30;;;;;;;12.07;8.00;;;;;;;4.06;69.93;95434.19;1734774;82;21145;-78
2021/03/12 00:50:57;;;;;;;14.43;9.03;;;;;;;4.12;69.76;95455.44;1735358;83;21087;-78
2021/03/12 00:53:24;;;;;;;12.20;7.80;;;;;;;4.14;69.58;95444.16;1735387;83;21492;-78
2021/03/12 00:55:52;;;;;;;13.75;8.75;;;;;;;4.11;69.57;95449.94;1735430;83;21145;-78
2021/03/12 00:58:22;;;;;;;13.62;9.35;;;;;;;4.12;69.59;95448.88;1734887;83;21108;-79
2021/03/12 01:00:50;;;;;;;13.90;8.18;;;;;;;4.11;69.63;95459.11;1734241;83;21112;-79
2021/03/12 01:03:17;;;;;;;15.48;9.85;;;;;;;4.08;69.77;95432.61;1734938;83;21140;-79
2021/03/12 01:05:44;;;;;;;13.85;7.92;;;;;;;4.01;70.13;95451.26;1735851;81;21117;-78
2021/03/12 01:08:12;;;;;;;12.28;8.38;;;;;;;3.93;70.42;95415.59;1734810;83;21123;-78
2021/03/12 01:10:41;;;;;;;12.15;8.10;;;;;;;3.86;70.93;95430.30;1734963;82;21158;-78
2021/03/12 01:13:09;;;;;;;12.30;8.38;;;;;;;3.77;71.57;95394.66;1734336;83;21126;-78
2021/03/12 01:15:36;;;;;;;14.35;9.58;;;;;;;3.66;72.15;95408.84;1732821;82;21447;-78
2021/03/12 01:18:05;;;;;;;16.52;9.18;;;;;;;3.54;73.09;95416.97;1719311;83;21131;-78
2021/03/12 01:20:37;;;;;;;14.45;8.43;;;;;;;3.41;73.95;95402.30;1733181;81;21089;-78
2021/03/12 01:23:06;;;;;;;12.20;9.10;;;;;;;3.32;74.58;95416.95;1712067;81;21128;-78
2021/03/12 01:25:40;;;;;;;11.80;7.97;;;;;;;3.28;75.26;95403.59;1733660;81;21102;-78
2021/03/12 01:28:09;;;;;;;12.13;7.72;;;;;;;3.26;75.54;95422.72;1731427;81;21530;-78
2021/03/12 01:30:44;;;;;;;13.03;8.90;;;;;;;3.30;75.63;95426.91;1724767;83;21122;-78
2021/03/12 01:33:11;;;;;;;11.43;7.53;;;;;;;3.27;76.00;95432.15;1734649;83;21125;-78
2021/03/12 01:35:39;;;;;;;13.85;8.45;;;;;;;3.25;76.44;95420.63;1733154;81;21083;-78
2021/03/12 01:38:07;;;;;;;14.15;8.98;;;;;;;3.22;76.41;95415.09;1734692;83;21119;-78
2021/03/12 01:40:45;;;;;;;13.45;8.50;;;;;;;3.20;76.52;95428.98;1734858;82;21122;-78
2021/03/12 01:43:13;;;;;;;12.80;7.83;;;;;;;3.18;76.84;95424.53;1734794;81;21174;-79
2021/03/12 01:45:47;;;;;;;10.65;7.00;;;;;;;3.20;76.74;95427.67;1731285;82;21103;-79
2021/03/12 01:48:18;;;;;;;12.60;7.47;;;;;;;3.24;76.60;95453.63;1717648;83;21091;-79
2021/03/12 01:50:53;;;;;;;11.08;7.08;;;;;;;3.24;76.82;95443.15;1739289;81;21111;-79
2021/03/12 01:53:22;;;;;;;11.83;9.33;;;;;;;3.22;76.83;95449.93;1731778;82;21126;-79
2021/03/12 01:55:51;;;;;;;13.28;8.95;;;;;;;3.20;77.28;95430.29;1731763;82;21110;-79
2021/03/12 01:58:22;;;;;;;13.40;9.08;;;;;;;3.18;77.52;95471.66;1731748;82;21146;-79
2021/03/12 02:00:50;;;;;;;10.68;7.97;;;;;;;3.12;77.71;95459.63;1750281;81;21239;-79
2021/03/12 02:03:22;;;;;;;12.53;7.90;;;;;;;3.08;78.51;95451.48;1731807;83;21118;-79
2021/03/12 02:05:49;;;;;;;13.38;9.28;;;;;;;3.09;78.59;95476.61;1740284;81;21146;-79
2021/03/12 02:08:16;;;;;;;12.28;6.75;;;;;;;3.05;78.96;95481.32;1731668;83;21153;-79
2021/03/12 02:10:44;;;;;;;11.45;6.90;;;;;;;2.98;79.36;95471.89;1731793;83;21184;-79
2021/03/12 02:13:54;;;;;;;10.78;7.22;;;;;;;2.96;79.95;95476.61;1739443;81;21146;-79
2021/03/12 02:16:37;;;;;;;16.77;7.90;;;;;;;2.94;80.09;95460.34;1729298;81;21115;-79
2021/03/12 02:19:39;;;;;;;10.68;6.87;;;;;;;2.87;80.82;95427.09;1730710;83;21486;-79
2021/03/12 02:22:08;;;;;;;9.28;6.47;;;;;;;2.84;81.46;95457.72;1731213;83;21123;-79
2021/03/12 02:24:55;;;;;;;7.80;4.47;;;;;;;2.82;81.94;95476.82;1732961;81;21503;-79
2021/03/12 02:27:24;;;;;;;7.03;4.78;;;;;;;2.86;82.83;95460.86;1675951;84;21140;-79
2021/03/12 02:29:56;;;;;;;7.55;4.37;;;;;;;2.96;83.82;95422.94;1723410;83;21119;-79
2021/03/12 02:32:36;;;;;;;8.08;4.78;;;;;;;3.00;83.96;95456.45;1712031;83;21151;-79
2021/03/12 02:35:12;;;;;;;11.18;6.15;;;;;;;2.96;84.03;95430.80;1678847;81;21170;-79
2021/03/12 02:37:41;;;;;;;9.73;6.15;;;;;;;2.86;83.61;95444.38;1727621;81;21257;-79
2021/03/12 02:40:10;;;;;;;8.38;4.78;;;;;;;2.72;83.61;95463.69;1734619;81;21502;-79
2021/03/12 02:42:40;;;;;;;8.57;5.60;;;;;;;2.65;84.09;95406.88;1696276;81;21456;-79
2021/03/12 02:45:10;;;;;;;11.73;8.13;;;;;;;2.61;84.34;95431.98;1728900;81;21826;-79
2021/03/12 02:47:39;;;;;;;13.55;7.37;;;;;;;2.58;84.18;95448.20;1688274;84;21120;-79
2021/03/12 02:50:09;;;;;;;11.35;7.10;;;;;;;2.55;84.34;95439.56;1707461;83;21186;-79
2021/03/12 02:52:37;;;;;;;9.38;5.58;;;;;;;2.53;84.50;95437.17;1713583;83;21531;-79
2021/03/12 02:55:07;;;;;;;10.63;6.60;;;;;;;2.54;84.73;95400.84;1717325;83;21147;-79
2021/03/12 02:57:35;;;;;;;8.33;5.80;;;;;;;2.52;85.13;95404.73;1706198;83;21143;-78
2021/03/12 03:00:04;;;;;;;8.63;5.87;;;;;;;2.52;85.13;95404.73;1700671;83;21607;-79
2021/03/12 03:02:32;;;;;;;10.53;6.62;;;;;;;2.51;85.17;95445.02;1704644;83;21484;-79
2021/03/12 03:05:02;;;;;;;6.83;4.20;;;;;;;2.53;85.32;95439.00;1699744;83;21193;-79
2021/03/12 03:07:29;;;;;;;12.15;6.83;;;;;;;2.54;85.26;95437.47;1688635;83;21513;-79
2021/03/12 03:09:57;;;;;;;7.50;5.20;;;;;;;2.57;84.99;95442.18;1699836;83;21150;-79
2021/03/12 03:12:27;;;;;;;10.58;5.65;;;;;;;2.62;84.94;95436.17;1704951;83;21166;-78
2021/03/12 03:14:59;;;;;;;7.25;5.08;;;;;;;2.65;84.67;95419.43;1707315;83;21174;-78
2021/03/12 03:17:29;;;;;;;8.75;6.12;;;;;;;2.72;84.50;95439.36;1696199;83;21169;-79
2021/03/12 03:19:59;;;;;;;7.62;5.12;;;;;;;2.73;84.35;95433.86;1710110;83;21522;-79
2021/03/12 03:22:26;;;;;;;9.13;5.60;;;;;;;2.77;84.28;95417.90;1705398;83;21165;-79
2021/03/12 03:24:55;;;;;;;8.18;5.22;;;;;;;2.80;84.27;95423.92;1710390;83;21167;-79
2021/03/12 03:27:22;;;;;;;8.65;5.15;;;;;;;2.83;84.26;95418.72;1704569;83;21124;-78
2021/03/12 03:29:49;;;;;;;7.87;5.40;;;;;;;2.84;83.99;95405.37;1714412;83;21140;-78
2021/03/12 03:32:16;;;;;;;4.45;3.60;;;;;;;2.83;83.78;95378.94;1687986;84;21167;-79
2021/03/12 03:34:44;;;;;;;7.65;5.25;;;;;;;2.84;83.76;95364.80;1688182;83;21526;-79
2021/03/12 03:37:13;;;;;;;8.18;5.03;;;;;;;2.83;83.73;95363.76;1707502;83;21119;-79
2021/03/12 03:39:40;;;;;;;4.45;3.58;;;;;;;2.82;83.66;95371.34;1703299;83;21472;-79
2021/03/12 03:42:11;;;;;;;4.42;3.02;;;;;;;2.83;84.00;95376.32;1703153;83;21128;-79
2021/03/12 03:44:41;;;;;;;4.50;3.00;;;;;;;2.86;84.08;95390.72;1690070;83;21147;-79
2021/03/12 03:47:11;;;;;;;3.85;2.50;;;;;;;2.96;84.16;95370.58;1712572;83;21260;-79
2021/03/12 03:49:41;;;;;;;4.40;2.58;;;;;;;3.12;84.06;95367.45;1728548;83;21470;-78
2021/03/12 03:52:10;;;;;;;3.67;2.90;;;;;;;3.22;83.73;95365.34;1717561;83;21146;-78
2021/03/12 03:54:38;;;;;;;3.75;2.67;;;;;;;3.33;83.36;95365.61;1735398;82;21241;-78
2021/03/12 03:57:08;;;;;;;4.17;2.30;;;;;;;3.42;83.06;95381.07;1731123;82;21285;-78
2021/03/12 03:59:39;;;;;;;2.98;2.17;;;;;;;3.46;82.77;95395.20;1733321;81;21139;-78
2021/03/12 04:02:14;;;;;;;2.77;1.98;;;;;;;3.57;82.49;95381.06;1733308;81;21271;-78
2021/03/12 04:04:48;;;;;;;4.30;2.40;;;;;;;3.67;82.07;95391.28;1729922;82;21240;-78
2021/03/12 04:07:19;;;;;;;2.47;2.00;;;;;;;3.68;81.85;95382.37;1727966;82;21303;-78
2021/03/12 04:09:52;;;;;;;3.70;1.95;;;;;;;3.63;81.74;95388.91;1734119;82;21102;-78
2021/03/12 04:12:20;;;;;;;3.67;2.10;;;;;;;3.64;81.74;95365.58;1695484;83;21141;-78
2021/03/12 04:14:47;;;;;;;3.77;2.50;;;;;;;3.68;81.59;95341.74;1725408;82;21299;-78
2021/03/12 04:17:16;;;;;;;3.80;2.02;;;;;;;3.67;81.44;95355.91;1735942;81;21288;-78
2021/03/12 04:19:45;;;;;;;3.50;2.10;;;;;;;3.69;81.46;95396.52;1710222;83;21276;-78
2021/03/12 04:22:14;;;;;;;2.15;1.80;;;;;;;3.80;81.33;95384.16;1727838;81;21158;-78
2021/03/12 04:24:44;;;;;;;4.60;2.35;;;;;;;3.80;81.19;95400.70;1704407;82;21266;-78
2021/03/12 04:27:12;;;;;;;2.85;1.90;;;;;;;3.82;81.11;95364.52;1723789;81;21125;-78
2021/03/12 04:29:40;;;;;;;2.87;2.30;;;;;;;3.80;81.11;95398.08;1743314;81;21162;-78
2021/03/12 04:32:09;;;;;;;2.80;2.00;;;;;;;3.79;81.16;95390.45;1716471;82;21273;-78
2021/03/12 04:34:37;;;;;;;3.42;2.25;;;;;;;3.82;81.18;95383.39;1714588;83;21188;-78
2021/03/12 04:37:06;;;;;;;3.95;2.60;;;;;;;3.82;81.07;95377.62;1733944;81;21448;-79
2021/03/12 04:39:34;;;;;;;2.55;1.98;;;;;;;3.78;81.07;95367.39;1719938;82;21704;-79
2021/03/12 04:42:05;;;;;;;3.62;2.42;;;;;;;3.77;81.20;95363.73;1731471;81;21146;-79
2021/03/12 04:44:37;;;;;;;4.80;2.85;;;;;;;3.80;81.32;95365.81;1721602;83;21127;-79
2021/03/12 04:47:06;;;;;;;3.70;2.08;;;;;;;3.79;81.28;95375.51;1700487;83;21157;-79
2021/03/12 04:49:35;;;;;;;4.85;3.20;;;;;;;3.82;81.32;95409.08;1725054;82;21123;-79
2021/03/12 04:52:03;;;;;;;7.10;3.00;;;;;;;3.84;81.30;95429.78;1713656;82;21147;-79
2021/03/12 04:54:31;;;;;;;5.72;3.02;;;;;;;3.89;81.31;95457.30;1727666;82;21195;-79
2021/03/12 04:56:59;;;;;;;4.70;2.70;;;;;;;3.95;81.24;95460.72;1730409;82;21476;-79
2021/03/12 04:59:26;;;;;;;3.92;2.58;;;;;;;4.02;81.09;95465.94;1728261;82;21517;-79
2021/03/12 05:01:53;;;;;;;4.30;2.50;;;;;;;4.07;81.04;95458.58;1726867;82;21112;-79
2021/03/12 05:04:20;;;;;;;3.37;2.00;;;;;;;4.10;80.96;95475.91;1730361;82;21147;-79
2021/03/12 05:06:49;;;;;;;4.65;2.98;;;;;;;4.11;80.91;95469.61;1718670;82;21109;-79
2021/03/12 05:09:16;;;;;;;6.22;3.85;;;;;;;4.09;80.97;95454.66;1728946;82;21221;-79
2021/03/12 05:11:44;;;;;;;7.28;3.70;;;;;;;4.08;80.95;95471.95;1724703;82;21477;-79
2021/03/12 05:14:13;;;;;;;5.10;3.10;;;;;;;4.06;80.90;95468.28;1725959;82;21179;-79
2021/03/12 05:16:41;;;;;;;2.98;2.27;;;;;;;4.05;80.90;95483.76;1690701;83;21122;-79
2021/03/12 05:19:09;;;;;;;5.58;2.87;;;;;;;4.03;80.94;95479.30;1730064;82;21152;-79
2021/03/12 05:21:37;;;;;;;4.37;2.37;;;;;;;4.01;80.93;95477.48;1727426;82;21166;-79
2021/03/12 05:24:04;;;;;;;5.42;2.92;;;;;;;3.99;81.03;95452.58;1694695;83;21152;-79
2021/03/12 05:26:31;;;;;;;5.40;3.17;;;;;;;3.99;81.01;95467.78;1727077;82;21082;-79
2021/03/12 05:28:59;;;;;;;5.05;3.17;;;;;;;3.99;80.97;95461.75;1727249;82;21143;-79
2021/03/12 05:31:30;;;;;;;7.33;4.25;;;;;;;4.00;80.90;95472.50;1729757;82;21136;-79
2021/03/12 05:33:56;;;;;;;6.80;3.98;;;;;;;3.95;80.87;95458.88;1728821;82;21133;-79
2021/03/12 05:36:24;;;;;;;7.25;4.30;;;;;;;3.92;81.03;95455.45;1726781;82;21110;-79
2021/03/12 05:38:51;;;;;;;8.48;5.00;;;;;;;3.86;81.06;95475.66;1730102;82;21127;-79
2021/03/12 05:41:19;;;;;;;6.50;3.45;;;;;;;3.84;81.22;95482.22;1727670;82;21196;-79
2021/03/12 05:43:47;;;;;;;7.28;4.17;;;;;;;3.85;81.27;95478.55;1728695;82;21119;-79
2021/03/12 05:46:15;;;;;;;8.35;4.95;;;;;;;3.94;81.33;95486.16;1728855;81;21208;-79
2021/03/12 05:48:45;;;;;;;9.73;5.10;;;;;;;3.95;81.14;95480.38;1720762;83;21112;-79
2021/03/12 05:51:13;;;;;;;8.53;4.75;;;;;;;3.99;81.04;95478.27;1728954;81;21116;-79
2021/03/12 05:53:41;;;;;;;9.00;5.12;;;;;;;3.99;81.00;95472.24;1736140;81;21139;-79
2021/03/12 05:56:08;;;;;;;8.48;4.90;;;;;;;4.01;81.05;95468.30;1726097;81;21511;-79
2021/03/12 05:58:37;;;;;;;6.62;4.20;;;;;;;4.05;80.94;95443.64;1725844;83;21148;-79
2021/03/12 06:01:04;;;;;;;9.03;5.83;;;;;;;4.14;81.02;95465.13;1732528;81;21267;-79
2021/03/12 06:03:32;;;;;;;9.30;5.72;;;;;;;4.18;81.17;95475.88;1732263;83;21166;-79
2021/03/12 06:05:59;;;;;;;12.23;6.58;;;;;;;4.17;81.18;95473.78;1709636;83;21143;-79
2021/03/12 06:08:26;;;;;;;6.47;4.47;;;;;;;4.17;81.33;95476.41;1734649;81;21145;-79
2021/03/12 06:10:53;;;;;;;7.22;5.03;;;;;;;4.18;81.36;95460.92;1729553;81;21423;-80
2021/03/12 06:13:21;;;;;;;7.37;4.37;;;;;;;4.28;81.41;95485.58;1730164;83;21119;-79
2021/03/12 06:15:48;;;;;;;9.28;5.83;;;;;;;4.39;81.22;95478.73;1724470;81;21624;-79
2021/03/12 06:18:22;;;;;;;8.18;5.05;;;;;;;4.50;80.86;95498.37;1737292;81;21184;-79
2021/03/12 06:20:49;;;;;;;8.13;4.15;;;;;;;4.58;80.66;95506.49;1735342;81;21524;-79
2021/03/12 06:23:37;;;;;;;9.58;5.45;;;;;;;4.67;80.38;95500.97;1726066;82;21166;-79
2021/03/12 06:26:05;;;;;;;9.73;5.00;;;;;;;4.81;79.87;95505.64;1727036;83;21160;-79
2021/03/12 06:28:33;;;;;;;6.47;3.67;;;;;;;4.91;79.43;95554.17;1729904;81;21177;-78
2021/03/12 06:31:00;;;;;;;7.17;4.00;;;;;;;4.96;79.25;95534.47;1732869;81;21143;-78
2021/03/12 06:33:33;;;;;;;5.55;2.87;;;;;;;4.99;78.84;95549.69;1734542;81;21143;-79
2021/03/12 06:36:06;;;;;;;7.60;4.80;;;;;;;5.01;78.57;95542.32;1730758;81;21491;-79
2021/03/12 06:38:33;;;;;;;6.35;3.83;;;;;;;4.98;78.62;95566.50;1724940;81;21173;-79
2021/03/12 06:41:00;;;;;;;5.05;3.67;;;;;;;4.93;78.58;95560.75;1722059;81;21153;-79
2021/03/12 06:43:27;;;;;;;7.62;5.25;;;;;;;4.89;78.74;95582.02;1720240;82;21155;-79
2021/03/12 06:46:02;;;;;;;9.18;4.67;;;;;;;4.81;78.96;95572.59;1736023;81;21503;-79
2021/03/12 06:48:36;;;;;;;7.00;4.12;;;;;;;4.77;79.12;95595.95;1720754;82;21098;-79
2021/03/12 06:51:10;;;;;;;8.48;5.50;;;;;;;4.80;79.30;95578.91;1684278;85;21144;-79
2021/03/12 06:53:46;;;;;;;9.43;5.10;;;;;;;4.90;79.27;95596.71;1662805;84;21137;-79
2021/03/12 06:56:15;;;;;;;8.08;4.97;;;;;;;5.19;79.00;95589.00;1674877;85;21209;-79
2021/03/12 06:59:02;;;;;;;9.40;4.75;;;;;;;6.22;77.64;95591.37;1679258;85;21275;-79
2021/03/12 07:01:30;;;;;;;9.23;5.62;;;;;;;6.47;76.43;95602.98;1681028;84;21285;-79
2021/03/12 07:04:13;;;;;;;3.65;2.62;;;;;;;6.86;74.96;95590.25;1679153;85;21128;-79
2021/03/12 07:06:47;;;;;;;8.78;5.95;;;;;;;6.83;73.35;95593.45;1679238;85;21245;-79
2021/03/12 07:09:14;;;;;;;6.53;4.12;;;;;;;6.33;73.83;95605.99;1666644;85;21687;-79
2021/03/12 07:11:42;;;;;;;9.98;5.60;;;;;;;5.93;74.66;95614.98;1671034;84;21295;-79
2021/03/12 07:14:10;;;;;;;7.65;4.83;;;;;;;5.66;75.61;95624.56;1676677;85;21270;-79
2021/03/12 07:16:40;;;;;;;8.90;5.00;;;;;;;5.58;76.18;95639.58;1681603;84;21127;-79
2021/03/12 07:19:07;;;;;;;7.08;4.22;;;;;;;5.65;76.56;95632.20;1686946;84;21100;-79
2021/03/12 07:21:36;;;;;;;10.75;6.58;;;;;;;6.20;75.85;95638.23;1686683;84;21157;-79
2021/03/12 07:24:06;;;;;;;9.10;5.20;;;;;;;6.81;74.68;95643.00;1664789;85;21676;-79
2021/03/12 07:26:42;;;;;;;8.10;5.15;;;;;;;7.20;73.00;95639.47;1673761;84;21518;-79
2021/03/12 07:29:12;;;;;;;8.30;5.97;;;;;;;8.11;70.56;95656.80;1674491;85;21280;-79
2021/03/12 07:31:42;;;;;;;9.18;6.00;;;;;;;8.62;69.41;95644.20;1679233;85;21662;-79
2021/03/12 07:34:25;;;;;;;8.83;5.60;;;;;;;9.89;67.05;95649.01;1675945;84;21274;-78
2021/03/12 07:36:56;;;;;;;8.08;5.20;;;;;;;10.82;62.09;95639.47;1670121;85;21437;-78
2021/03/12 07:39:42;;;;;;;7.90;5.60;;;;;;;11.09;59.72;95646.49;1679531;84;21556;-79
2021/03/12 07:42:11;;;;;;;7.72;5.15;;;;;;;10.98;60.60;95633.27;1676564;85;21312;-79
2021/03/12 07:44:40;;;;;;;5.97;4.35;;;;;;;12.05;58.04;95636.45;1661895;84;21170;-79
2021/03/12 07:47:07;;;;;;;6.67;4.33;;;;;;;12.05;56.19;95629.03;1683683;84;21173;-79
2021/03/12 07:49:35;;;;;;;6.37;4.15;;;;;;;12.00;56.02;95634.50;1688578;84;21103;-79
2021/03/12 07:52:05;;;;;;;5.83;3.75;;;;;;;12.16;54.42;95636.94;1682580;85;21150;-79
2021/03/12 07:54:44;;;;;;;6.35;3.77;;;;;;;11.47;53.42;95652.67;1672769;85;21130;-79
2021/03/12 07:57:27;;;;;;;4.45;2.72;;;;;;;10.98;55.49;95643.34;1675601;85;21095;-79
2021/03/12 07:59:59;;;;;;;5.15;2.87;;;;;;;10.26;55.17;95625.44;1673922;84;21547;-79
2021/03/12 08:02:53;;;;;;;4.05;2.70;;;;;;;8.83;57.91;95628.24;1674331;85;21138;-79
2021/03/12 08:05:40;;;;;;;4.97;2.22;;;;;;;7.96;60.02;95674.16;1673736;85;21163;-79
2021/03/12 08:08:37;;;;;;;4.05;2.62;;;;;;;7.67;62.35;95656.58;1688435;84;21180;-79
2021/03/12 08:11:21;;;;;;;4.37;3.35;;;;;;;8.99;60.99;95657.83;1686043;84;21154;-79
2021/03/12 08:13:50;;;;;;;3.58;2.55;;;;;;;10.05;57.13;95668.78;1668016;85;21258;-79
2021/03/12 08:16:18;;;;;;;3.35;2.05;;;;;;;11.06;55.92;95681.58;1684741;85;21205;-79
2021/03/12 08:18:47;;;;;;;3.58;2.20;;;;;;;11.41;53.54;95679.91;1684823;85;21134;-79
2021/03/12 08:21:31;;;;;;;4.60;1.77;;;;;;;11.01;52.79;95668.46;1684696;85;21130;-79
2021/03/12 08:24:00;;;;;;;3.27;1.45;;;;;;;11.34;52.68;95670.26;1676202;85;21146;-79
2021/03/12 08:26:52;;;;;;;2.75;1.72;;;;;;;11.33;52.00;95695.77;1685571;84;21114;-79
2021/03/12 08:29:44;;;;;;;2.47;1.57;;;;;;;10.31;53.27;95692.89;1673421;85;21122;-78
2021/03/12 08:32:36;;;;;;;4.03;1.98;;;;;;;9.36;57.09;95687.33;1682068;85;21134;-79
2021/03/12 08:35:34;;;;;;;3.47;1.67;;;;;;;9.02;58.07;95705.40;1681264;84;21149;-79
2021/03/12 08:38:25;;;;;;;6.90;2.08;;;;;;;7.99;60.53;95729.02;1678848;85;21623;-79
2021/03/12 08:41:15;;;;;;;4.75;1.87;;;;;;;7.36;63.77;95741.06;1683242;84;21130;-80
2021/03/12 08:43:50;;;;;;;5.55;2.35;;;;;;;6.66;66.59;95736.63;1676582;85;21114;-79
2021/03/12 08:46:28;;;;;;;3.58;2.10;;;;;;;5.97;69.93;95755.43;1676408;85;21563;-79
2021/03/12 08:49:00;;;;;;;2.95;2.20;;;;;;;5.54;71.92;95762.11;1680203;84;21098;-79
2021/03/12 08:51:30;;;;;;;4.37;2.55;;;;;;;5.31;73.60;95756.88;1686942;84;21107;-79
2021/03/12 08:54:02;;;;;;;6.00;3.25;;;;;;;5.23;74.34;95760.06;1669861;85;21188;-79
2021/03/12 08:56:37;;;;;;;5.25;2.25;;;;;;;5.21;74.62;95764.80;1689187;84;21099;-78
2021/03/12 08:59:05;;;;;;;5.40;2.85;;;;;;;5.31;75.61;95755.05;1683005;84;21176;-78
2021/03/12 09:01:35;;;;;;;4.03;1.95;;;;;;;5.80;75.37;95764.94;1689647;84;21530;-79
2021/03/12 09:04:06;;;;;;;4.00;2.02;;;;;;;5.70;75.54;95753.66;1689464;84;21539;-79
2021/03/12 09:06:37;;;;;;;3.95;1.65;;;;;;;5.65;75.84;95754.47;1682321;84;21137;-79
2021/03/12 09:09:07;;;;;;;3.30;2.52;;;;;;;5.58;75.92;95747.37;1693003;84;21192;-79
2021/03/12 09:11:35;;;;;;;3.25;2.25;;;;;;;5.50;76.07;95746.62;1684820;85;21165;-79
2021/03/12 09:14:05;;;;;;;3.85;2.55;;;;;;;5.49;76.74;95751.09;1688772;84;21091;-79
2021/03/12 09:16:36;;;;;;;;;;;;;;;5.40;77.51;95751.89;1688970;84;21526;-79
2021/03/12 09:19:03;;;;;;;3.10;2.35;;;;;;;5.29;77.76;95751.89;1686131;84;20130;-79
2021/03/12 09:21:31;;;;;;;3.08;2.52;;;;;;;5.16;78.74;95772.14;1682885;84;21134;-79
2021/03/12 09:24:01;;;;;;;5.17;2.90;;;;;;;5.03;78.90;95768.73;1688678;84;21115;-79
2021/03/12 09:26:33;;;;;;;5.03;3.05;;;;;;;4.96;79.49;95775.58;1689216;84;21136;-79
2021/03/12 09:29:05;;;;;;;3.25;2.65;;;;;;;4.86;80.13;95785.28;1687565;84;21168;-79
2021/03/12 09:31:41;;;;;;;3.77;2.22;;;;;;;4.67;80.51;95785.00;1692447;84;21180;-79
2021/03/12 09:34:14;;;;;;;8.18;3.35;;;;;;;4.50;80.77;95799.65;1690815;84;21520;-79
2021/03/12 09:36:46;;;;;;;4.72;2.30;;;;;;;4.35;80.92;95794.36;1680659;84;21134;-78
2021/03/12 09:39:25;;;;;;;4.90;3.15;;;;;;;4.29;81.15;95804.06;1688491;84;21119;-78
2021/03/12 09:42:03;;;;;;;5.12;3.00;;;;;;;4.23;81.10;95807.73;1680234;84;21162;-79
2021/03/12 09:44:32;;;;;;;4.33;2.65;;;;;;;4.22;80.68;95817.93;1687782;84;21122;-79
2021/03/12 09:47:09;;;;;;;5.58;2.52;;;;;;;4.22;80.38;95821.08;1678808;85;21107;-79
2021/03/12 09:49:42;;;;;;;1.75;1.20;;;;;;;4.22;79.97;95827.11;1682355;84;21189;-79
2021/03/12 09:52:16;;;;;;;2.98;1.20;;;;;;;4.20;80.20;95834.98;1681217;84;21154;-79
2021/03/12 09:54:46;;;;;;;1.02;0.68;;;;;;;4.05;79.19;95839.64;1673354;85;21119;-80
2021/03/12 09:57:22;;;;;;;1.95;1.20;;;;;;;3.87;79.75;95844.28;1677771;84;21134;-80
2021/03/12 09:59:51;;;;;;;1.80;1.00;;;;;;;3.56;80.46;95858.25;1686013;84;21204;-79
2021/03/12 10:02:19;;;;;;;0.95;0.50;;;;;;;3.23;81.48;95868.45;1674966;84;21147;-79
2021/03/12 10:05:00;;;;;;;1.07;0.85;;;;;;;2.92;81.86;95878.66;1686855;84;21485;-79
2021/03/12 10:07:40;;;;;;;2.60;1.27;;;;;;;2.54;82.21;95890.06;1691516;84;21159;-79
2021/03/12 10:10:22;;;;;;;1.82;1.15;;;;;;;2.31;82.31;95881.15;1684275;84;21122;-80
2021/03/12 10:12:52;;;;;;;1.07;0.80;;;;;;;2.25;82.68;95874.26;1678387;84;21576;-80
2021/03/12 10:15:25;;;;;;;1.32;0.80;;;;;;;2.57;83.04;95880.92;1679422;84;21145;-80
2021/03/12 10:17:52;;;;;;;1.10;1.00;;;;;;;3.24;83.53;95867.45;1688052;84;21154;-80
2021/03/12 10:20:27;;;;;;;2.00;1.00;;;;;;;3.92;83.47;95868.42;1684844;84;21126;-80
2021/03/12 10:23:03;;;;;;;2.77;2.05;;;;;;;4.23;82.39;95858.89;1680653;84;21561;-80
2021/03/12 10:25:40;;;;;;;2.92;1.60;;;;;;;4.47;81.45;95858.70;1679277;84;21155;-80
2021/03/12 10:28:11;;;;;;;1.52;1.15;;;;;;;4.45;80.73;95860.01;1677070;85;21129;-80
2021/03/12 10:30:50;;;;;;;2.17;1.42;;;;;;;4.42;80.61;95865.78;1676269;84;21126;-79
2021/03/12 10:33:22;;;;;;;1.67;1.25;;;;;;;4.56;80.84;95844.56;1684834;84;21177;-78
2021/03/12 10:35:56;;;;;;;2.25;1.20;;;;;;;4.78;80.38;95823.33;1675681;84;21118;-78
2021/03/12 10:38:30;;;;;;;3.62;1.82;;;;;;;4.75;79.36;95854.05;1670268;85;21124;-78
2021/03/12 10:41:20;;;;;;;2.02;1.32;;;;;;;4.69;79.62;95857.20;1677212;84;21213;-78
2021/03/12 10:44:02;;;;;;;;;;;;;;;4.81;79.68;95833.86;1682082;84;21191;-78
2021/03/12 10:46:30;;;;;;;;;;;;;;;4.98;78.47;95831.25;1697751;84;20137;-78
2021/03/12 10:48:58;;;;;;;4.20;1.72;;;;;;;4.96;78.31;95849.64;1686600;84;20174;-78
2021/03/12 10:51:40;;;;;;;3.90;2.42;;;;;;;5.06;78.53;95835.19;1667853;85;21145;-78
2021/03/12 10:54:12;;;;;;;3.22;2.10;;;;;;;5.26;78.93;95865.95;1674840;85;21258;-78
2021/03/12 10:56:47;;;;;;;1.93;1.73;;;;;;;5.65;78.71;95846.49;1669903;84;21140;-78
2021/03/12 10:59:14;;;;;;;5.20;1.98;;;;;;;5.93;78.18;95830.16;1679537;84;21560;-78
2021/03/12 11:01:45;;;;;;;2.27;1.80;;;;;;;6.10;78.03;95831.16;1676881;84;21505;-78
2021/03/12 11:04:14;;;;;;;5.90;1.70;;;;;;;6.25;78.20;95823.73;1679164;84;21278;-78
2021/03/12 11:06:41;;;;;;;3.10;2.00;;;;;;;6.33;76.65;95840.27;1679401;84;21285;-79
2021/03/12 11:09:12;;;;;;;3.55;1.67;;;;;;;6.30;75.50;95820.28;1678778;84;21279;-78
2021/03/12 11:11:44;;;;;;;2.37;1.98;;;;;;;6.37;76.41;95837.38;1678833;85;21277;-78
2021/03/12 11:14:11;;;;;;;;;;;;;;;6.50;75.83;95823.63;1681656;85;21275;-78
2021/03/12 11:16:38;;;;;;;2.77;1.82;;;;;;;6.54;74.58;95815.97;1662181;85;20341;-78
2021/03/12 11:19:06;;;;;;;2.22;1.30;;;;;;;6.60;74.76;95824.08;1664679;84;21172;-78
2021/03/12 11:21:33;;;;;;;2.87;1.32;;;;;;;6.66;71.76;95823.02;1678471;84;21506;-78
2021/03/12 11:24:01;;;;;;;3.20;1.42;;;;;;;6.70;71.94;95831.94;1679220;84;21289;-78
2021/03/12 11:26:29;;;;;;;2.30;1.40;;;;;;;6.76;71.24;95755.79;1681502;84;21321;-78
2021/03/12 11:28:57;;;;;;;1.98;1.47;;;;;;;6.87;71.11;95814.44;1682735;84;21267;-78
2021/03/12 11:31:27;;;;;;;1.70;1.27;;;;;;;6.98;70.51;95821.75;1679157;85;21520;-78
2021/03/12 11:33:55;;;;;;;2.98;1.60;;;;;;;7.06;69.47;95790.34;1676998;84;21707;-78
2021/03/12 11:36:23;;;;;;;2.33;1.32;;;;;;;7.12;70.56;95830.08;1677366;84;21280;-78
2021/03/12 11:38:50;;;;;;;1.55;1.22;;;;;;;7.22;67.04;95850.31;1681312;84;21270;-78
2021/03/12 11:41:18;;;;;;;1.45;1.12;;;;;;;7.23;66.47;95815.52;1677110;84;21322;-78
2021/03/12 11:43:45;;;;;;;2.10;1.30;;;;;;;7.24;66.30;95792.05;1679060;85;21691;-78
2021/03/12 11:46:12;;;;;;;2.92;1.27;;;;;;;7.25;65.57;95808.11;1670977;84;21482;-78
2021/03/12 11:48:39;;;;;;;1.22;1.00;;;;;;;7.24;65.59;95824.47;1668479;84;21169;-78
2021/03/12 11:51:06;;;;;;;1.17;0.85;;;;;;;7.32;65.64;95847.61;1668126;84;21337;-78
2021/03/12 11:53:35;;;;;;;1.45;1.20;;;;;;;7.27;64.76;95841.58;1668352;84;21145;-78
2021/03/12 11:56:02;;;;;;;2.27;1.30;;;;;;;7.22;63.36;95831.08;1675602;85;21474;-78
2021/03/12 11:58:30;;;;;;;2.12;1.42;;;;;;;7.29;64.62;95873.72;1679271;84;21347;-79
2021/03/12 12:00:58;;;;;;;1.27;1.05;;;;;;;7.29;64.05;95865.81;1677343;84;21377;-79